Airfield :
LOGIN :

Register | Disclaimer

   EN    FR    IT 

 










Legend :    VFR   Marginal VFR   IFR   Intensive IFR   Very Intensive IFR
Visi :
Ceiling :
>= 8 km
>= 3000ft
5 to 8 km
1000 to 3000 ft
1500m to 5 km
500 to 1000 ft
800 to 1500m
200 to 500 ft
< 800m
< 200 ft
Symbols :   Thunderstorms  Fog  Heavy snow  Heavy precipitations  Wind > 20 kt
SIGMETs :     Misc.  Thunderstorms  Icing  Turbulence  Mountain Waves  Volcanic Ashes






- Airport Elevation : 19 ft
- IATA code : LCY


EGLC - London City

CURRENT METAR :
  • 271750Z AUTO 30012KT 9999 NCD 07/M02 Q1009

EXPIRED METARs :
  • 271720Z AUTO 30014KT 9999 NCD 08/M02 Q1008
  • 271650Z AUTO 30015KT 9999 NCD 08/M02 Q1007
  • 271620Z AUTO 30018G28KT 9999 FEW047 08/M02 Q1006
  • 271550Z AUTO 30019G30KT 9999 SCT045 08/M02 Q1005
  • 271520Z AUTO 30016G28KT 280V340 9999 BKN045 08/M01 Q1005

TAF TAF EGLC
Valid from the 27 at 18:00 until the 27 at 21:00 UTC


271707Z 2718/2721 30014KT 9999 FEW040
ATIS : +44 20 7646 0224



MET'MAP, your aeronautical weather chart ! - Copyright ORBIFLY December 2007 - Disclaimer

ORBIFLY MET'MAP TEAM :

Programming & Development : Alexandra Zaïnal
Concept & original design : Baudouin d'Aumeries
Assistance for programming : Marc-Olivier Méhu
Technical & hardware support : Manuel Goepfert

Contact : metmap@orbifly.com




SOURCES & CREDITS :

   NOAA